createdAt,value
2018-12-02T00:02:59.868Z,4.83
2018-12-02T00:12:59.933Z,4.65
2018-12-02T00:22:59.930Z,4.03
2018-12-02T00:33:00.895Z,3.82
2018-12-02T00:42:59.943Z,3.63
2018-12-02T00:52:59.885Z,3.49
2018-12-02T01:02:59.978Z,4.10
2018-12-02T01:12:59.862Z,3.81
2018-12-02T01:22:59.910Z,3.49
2018-12-02T01:32:59.985Z,5.17
2018-12-02T01:42:59.841Z,3.70
2018-12-02T01:52:59.938Z,3.94
2018-12-02T02:02:59.930Z,3.42
2018-12-02T02:13:00.599Z,5.06
2018-12-02T02:22:59.840Z,4.25
2018-12-02T02:32:59.937Z,4.73
2018-12-02T02:42:59.896Z,4.90
2018-12-02T02:52:59.961Z,5.65
2018-12-02T03:02:59.875Z,4.68
2018-12-02T03:12:59.923Z,4.90
2018-12-02T03:22:59.916Z,4.86
2018-12-02T03:32:59.880Z,5.12
2018-12-02T03:42:59.912Z,4.46
2018-12-02T03:52:59.891Z,5.19
2018-12-02T04:02:59.924Z,4.27
2018-12-02T04:12:59.910Z,4.96
2018-12-02T04:22:59.873Z,5.55
2018-12-02T04:32:59.822Z,4.71
2018-12-02T04:42:59.839Z,4.74
2018-12-02T04:52:59.868Z,3.66
2018-12-02T05:02:59.829Z,4.68
2018-12-02T05:12:59.816Z,5.75
2018-12-02T05:22:59.921Z,5.42
2018-12-02T05:32:59.821Z,5.59
2018-12-02T05:42:59.881Z,5.91
2018-12-02T05:52:59.807Z,5.85
2018-12-02T06:03:02.219Z,4.62
2018-12-02T06:12:59.838Z,5.19
2018-12-02T06:22:59.900Z,4.43
2018-12-02T06:32:59.872Z,5.15
2018-12-02T06:42:59.850Z,4.71
2018-12-02T06:52:59.841Z,5.01
2018-12-02T07:02:59.812Z,4.93
2018-12-02T07:12:59.870Z,4.82
2018-12-02T07:22:59.836Z,5.24
2018-12-02T07:32:59.777Z,5.29
2018-12-02T07:42:59.838Z,5.38
2018-12-02T07:52:59.849Z,5.59
2018-12-02T08:02:59.832Z,5.07
2018-12-02T08:12:59.789Z,5.69
2018-12-02T08:22:59.851Z,6.53
2018-12-02T08:32:59.848Z,5.41
2018-12-02T08:42:59.801Z,6.66
2018-12-02T08:52:59.868Z,6.13
2018-12-02T09:02:59.821Z,5.91
2018-12-02T09:12:59.875Z,6.12
2018-12-02T09:23:00.674Z,6.77
2018-12-02T09:32:59.842Z,6.22
2018-12-02T09:42:59.903Z,6.31
2018-12-02T09:52:59.815Z,6.11
2018-12-02T10:02:59.794Z,5.90
2018-12-02T10:12:59.890Z,5.53
2018-12-02T10:22:59.902Z,5.98
2018-12-02T10:32:59.825Z,5.35
2018-12-02T10:43:00.054Z,5.72
2018-12-02T10:52:59.812Z,5.08
2018-12-02T11:02:59.774Z,4.22
2018-12-02T11:12:59.756Z,4.53
2018-12-02T11:22:59.845Z,4.76
2018-12-02T11:32:59.717Z,5.04
2018-12-02T11:42:59.917Z,5.90
2018-12-02T11:52:59.886Z,5.78
2018-12-02T12:02:59.882Z,5.91
2018-12-02T12:12:59.964Z,6.98
2018-12-02T12:22:59.766Z,5.61
2018-12-02T12:32:59.795Z,4.51
2018-12-02T12:42:59.822Z,5.06
2018-12-02T12:52:59.809Z,4.65
2018-12-02T13:03:00.128Z,5.95
2018-12-02T13:12:59.853Z,5.59
2018-12-02T13:22:59.821Z,5.97
2018-12-02T13:32:59.814Z,5.48
2018-12-02T13:42:59.975Z,5.17
2018-12-02T13:52:59.831Z,4.51
2018-12-02T14:02:59.810Z,4.95
2018-12-02T14:12:59.958Z,4.88
2018-12-02T14:22:59.829Z,4.64
2018-12-02T14:33:03.961Z,3.78
2018-12-02T14:42:59.772Z,3.94
2018-12-02T14:52:59.720Z,4.60
2018-12-02T15:02:59.763Z,4.43
2018-12-02T15:13:00.008Z,3.91
2018-12-02T15:22:59.755Z,5.17
2018-12-02T15:32:59.760Z,4.58
2018-12-02T15:42:59.844Z,4.64
2018-12-02T15:52:59.848Z,5.20
2018-12-02T16:02:59.842Z,3.87
2018-12-02T16:12:59.826Z,4.99
2018-12-02T16:22:59.848Z,4.49
2018-12-02T16:32:59.767Z,3.53
2018-12-02T16:43:00.373Z,3.89
2018-12-02T16:52:59.756Z,3.87
2018-12-02T17:02:59.876Z,3.65
2018-12-02T17:12:59.853Z,3.71
2018-12-02T17:22:59.868Z,2.87
2018-12-02T17:32:59.791Z,2.93
2018-12-02T17:42:59.835Z,2.54
2018-12-02T17:52:59.829Z,5.25
2018-12-02T18:02:59.851Z,5.47
2018-12-02T18:12:59.862Z,5.27
2018-12-02T18:22:59.819Z,4.28
2018-12-02T18:32:59.873Z,4.57
2018-12-02T18:42:59.786Z,5.23
2018-12-02T18:53:00.112Z,4.84
2018-12-02T19:02:59.867Z,3.35
2018-12-02T19:12:59.845Z,4.81
2018-12-02T19:23:00.047Z,4.01
2018-12-02T19:32:59.769Z,3.77
2018-12-02T19:42:59.768Z,4.28
2018-12-02T19:52:59.844Z,3.60
2018-12-02T20:02:59.820Z,3.60
2018-12-02T20:12:59.782Z,3.76
2018-12-02T20:22:59.773Z,3.81
2018-12-02T20:32:59.871Z,4.09
2018-12-02T20:42:59.852Z,3.44
2018-12-02T20:52:59.766Z,2.86
2018-12-02T21:02:59.774Z,2.32
2018-12-02T21:12:59.865Z,1.87
2018-12-02T21:22:59.793Z,2.65
2018-12-02T21:32:59.777Z,1.80
2018-12-02T21:42:59.789Z,1.44
2018-12-02T21:52:59.869Z,2.77
2018-12-02T22:02:59.760Z,3.02
2018-12-02T22:12:59.849Z,3.30
2018-12-02T22:22:59.688Z,5.38
2018-12-02T22:32:59.785Z,4.93
2018-12-02T22:42:59.789Z,2.96
2018-12-02T22:52:59.819Z,3.66
2018-12-02T23:02:59.787Z,3.34
2018-12-02T23:12:59.753Z,2.91
2018-12-02T23:22:59.817Z,2.92
2018-12-02T23:32:59.991Z,3.68
2018-12-02T23:42:59.753Z,4.12
2018-12-02T23:52:59.721Z,4.41
